Strona główna
METAR-TAF:

METAR-TAF

Lotnisko :

Port lotniczy Curaçao

Curaçao, Antyle Holenderskie

Szerokość geograficzna: 12-12N, Długość geograficzna: 068-58W, wysokość: 9 m

Aktualna obserwacja pogody

Raport powstał 49 minut temu, godzina 08:00 UTC
Wiatr 12 kt od wschodnio-południowy wschód
Temperatura 27°C
Wilgotność 74%
Ciśnienie 1012 hPa
Widzialność 10 km lub więcej
Mało chmury na wysokości 1700 ft

METAR: TNCC 210800Z 12012KT 9999 FEW017 27/22 Q1012 NOSIG

czas: 04:49 (08:49 UTC)

Prognoza

Raport powstał 3 godziny i 49 minut temu, godzina 05:00 UTC
Prognoza ważna od 21 godzina 06 UTC do 22 godzina 06 UTC
Wiatr 12 kt od wschód
Widzialność 10 km lub więcej
Mało chmury na wysokości 1500 ft

TAF: TNCC 210500Z 2106/2206 10012KT 9999 FEW015

Obserwacja i prognoza pogody dla ponad 4000 lotnisk (raport METAR i TAF).

Dostępne stacje oznaczono żółtymi i czerwonymi punktami na mapie.

Najedź kursorem aby zobaczyć nazwę stacji.

Kliknij aby zobaczyć obserwacje i prognozy pogody.

Aby zmienić mapę: kliknij na zielony przycisk z czarnym krzyżykiem, aby powiększyć; na zielony przycisk z myślnikiem, aby pomniejszyć; na zielone strzałki, aby przejść do map sąsiednich.


METAR-TAF: